sensor_id;sensor_type;location;lat;lon;timestamp;P1;durP1;ratioP1;P2;durP2;ratioP2
62030;SDS011;62035;52.094;5.112;2023-04-25T00:01:29;20.02;;;4.38;;
62030;SDS011;62035;52.094;5.112;2023-04-25T00:03:57;18.05;;;3.97;;
62030;SDS011;62035;52.094;5.112;2023-04-25T00:06:26;19.58;;;4.32;;
62030;SDS011;62035;52.094;5.112;2023-04-25T00:08:54;16.98;;;4.18;;
62030;SDS011;62035;52.094;5.112;2023-04-25T00:11:23;18.77;;;3.40;;
62030;SDS011;62035;52.094;5.112;2023-04-25T00:13:51;12.75;;;3.42;;
62030;SDS011;62035;52.094;5.112;2023-04-25T00:16:20;11.77;;;2.85;;
62030;SDS011;62035;52.094;5.112;2023-04-25T00:18:47;6.85;;;3.25;;
62030;SDS011;62035;52.094;5.112;2023-04-25T00:21:17;12.05;;;2.95;;
62030;SDS011;62035;52.094;5.112;2023-04-25T00:23:45;14.65;;;3.55;;
62030;SDS011;62035;52.094;5.112;2023-04-25T00:26:13;10.93;;;2.78;;
62030;SDS011;62035;52.094;5.112;2023-04-25T00:28:42;8.15;;;2.60;;
62030;SDS011;62035;52.094;5.112;2023-04-25T00:31:09;13.57;;;2.65;;
62030;SDS011;62035;52.094;5.112;2023-04-25T00:33:37;13.10;;;2.83;;
62030;SDS011;62035;52.094;5.112;2023-04-25T00:36:05;13.90;;;2.40;;
62030;SDS011;62035;52.094;5.112;2023-04-25T00:38:34;9.10;;;2.47;;
62030;SDS011;62035;52.094;5.112;2023-04-25T00:41:04;17.92;;;5.18;;
62030;SDS011;62035;52.094;5.112;2023-04-25T00:43:33;12.98;;;3.58;;
62030;SDS011;62035;52.094;5.112;2023-04-25T00:46:04;14.20;;;2.83;;
62030;SDS011;62035;52.094;5.112;2023-04-25T00:48:32;11.63;;;2.97;;
62030;SDS011;62035;52.094;5.112;2023-04-25T00:50:59;12.52;;;3.05;;
62030;SDS011;62035;52.094;5.112;2023-04-25T00:53:27;14.93;;;3.33;;
62030;SDS011;62035;52.094;5.112;2023-04-25T00:55:57;16.65;;;3.72;;
62030;SDS011;62035;52.094;5.112;2023-04-25T00:58:25;10.55;;;2.78;;
62030;SDS011;62035;52.094;5.112;2023-04-25T01:00:53;14.80;;;3.03;;
62030;SDS011;62035;52.094;5.112;2023-04-25T01:03:25;16.75;;;3.45;;
62030;SDS011;62035;52.094;5.112;2023-04-25T01:05:54;13.40;;;4.00;;
62030;SDS011;62035;52.094;5.112;2023-04-25T01:08:23;16.85;;;3.85;;
62030;SDS011;62035;52.094;5.112;2023-04-25T01:10:52;16.58;;;3.40;;
62030;SDS011;62035;52.094;5.112;2023-04-25T01:13:19;16.40;;;3.53;;
62030;SDS011;62035;52.094;5.112;2023-04-25T01:15:47;24.90;;;4.00;;
62030;SDS011;62035;52.094;5.112;2023-04-25T01:18:15;15.48;;;3.25;;
62030;SDS011;62035;52.094;5.112;2023-04-25T01:20:44;17.08;;;3.38;;
62030;SDS011;62035;52.094;5.112;2023-04-25T01:23:15;16.27;;;3.80;;
62030;SDS011;62035;52.094;5.112;2023-04-25T01:25:43;18.52;;;3.40;;
62030;SDS011;62035;52.094;5.112;2023-04-25T01:28:12;19.00;;;3.00;;
62030;SDS011;62035;52.094;5.112;2023-04-25T01:30:40;14.45;;;3.47;;
62030;SDS011;62035;52.094;5.112;2023-04-25T01:33:08;20.58;;;2.90;;
62030;SDS011;62035;52.094;5.112;2023-04-25T01:35:36;19.35;;;3.55;;
62030;SDS011;62035;52.094;5.112;2023-04-25T01:38:03;15.75;;;3.60;;
62030;SDS011;62035;52.094;5.112;2023-04-25T01:40:32;11.80;;;3.75;;
62030;SDS011;62035;52.094;5.112;2023-04-25T01:43:01;16.40;;;3.45;;
62030;SDS011;62035;52.094;5.112;2023-04-25T01:45:29;15.60;;;3.42;;
62030;SDS011;62035;52.094;5.112;2023-04-25T01:47:57;15.30;;;3.58;;
62030;SDS011;62035;52.094;5.112;2023-04-25T01:50:25;18.63;;;3.30;;
62030;SDS011;62035;52.094;5.112;2023-04-25T01:52:52;14.18;;;3.90;;
62030;SDS011;62035;52.094;5.112;2023-04-25T01:55:22;15.80;;;3.30;;
62030;SDS011;62035;52.094;5.112;2023-04-25T01:57:51;16.00;;;3.15;;
62030;SDS011;62035;52.094;5.112;2023-04-25T02:00:18;12.43;;;3.38;;
62030;SDS011;62035;52.094;5.112;2023-04-25T02:02:46;12.43;;;3.20;;
62030;SDS011;62035;52.094;5.112;2023-04-25T02:05:16;25.42;;;3.25;;
62030;SDS011;62035;52.094;5.112;2023-04-25T02:07:43;11.75;;;2.72;;
62030;SDS011;62035;52.094;5.112;2023-04-25T02:10:11;12.05;;;3.00;;
62030;SDS011;62035;52.094;5.112;2023-04-25T02:12:39;10.65;;;2.33;;
62030;SDS011;62035;52.094;5.112;2023-04-25T02:15:08;9.98;;;3.17;;
62030;SDS011;62035;52.094;5.112;2023-04-25T02:17:37;15.18;;;2.90;;
62030;SDS011;62035;52.094;5.112;2023-04-25T02:20:05;12.55;;;3.55;;
62030;SDS011;62035;52.094;5.112;2023-04-25T02:22:33;12.60;;;2.90;;
62030;SDS011;62035;52.094;5.112;2023-04-25T02:25:01;14.10;;;3.60;;
62030;SDS011;62035;52.094;5.112;2023-04-25T02:27:30;15.00;;;3.03;;
62030;SDS011;62035;52.094;5.112;2023-04-25T02:29:58;12.15;;;3.20;;
62030;SDS011;62035;52.094;5.112;2023-04-25T02:32:27;13.13;;;3.10;;
62030;SDS011;62035;52.094;5.112;2023-04-25T02:34:54;22.90;;;3.53;;
62030;SDS011;62035;52.094;5.112;2023-04-25T02:37:24;14.80;;;3.13;;
62030;SDS011;62035;52.094;5.112;2023-04-25T02:39:51;14.88;;;3.25;;
62030;SDS011;62035;52.094;5.112;2023-04-25T02:42:19;18.60;;;3.47;;
62030;SDS011;62035;52.094;5.112;2023-04-25T02:44:47;18.92;;;3.20;;
62030;SDS011;62035;52.094;5.112;2023-04-25T02:47:14;14.18;;;3.42;;
62030;SDS011;62035;52.094;5.112;2023-04-25T02:49:43;16.60;;;4.00;;
62030;SDS011;62035;52.094;5.112;2023-04-25T02:52:12;17.73;;;3.17;;
62030;SDS011;62035;52.094;5.112;2023-04-25T02:54:40;15.35;;;3.30;;
62030;SDS011;62035;52.094;5.112;2023-04-25T02:57:07;16.85;;;3.80;;
62030;SDS011;62035;52.094;5.112;2023-04-25T02:59:35;15.48;;;3.42;;
62030;SDS011;62035;52.094;5.112;2023-04-25T03:02:03;15.35;;;3.35;;
62030;SDS011;62035;52.094;5.112;2023-04-25T03:04:30;14.50;;;3.08;;
62030;SDS011;62035;52.094;5.112;2023-04-25T03:07:00;11.18;;;3.25;;
62030;SDS011;62035;52.094;5.112;2023-04-25T03:09:28;12.35;;;2.80;;
62030;SDS011;62035;52.094;5.112;2023-04-25T03:11:55;13.85;;;3.70;;
62030;SDS011;62035;52.094;5.112;2023-04-25T03:14:23;16.38;;;3.38;;
62030;SDS011;62035;52.094;5.112;2023-04-25T03:16:51;20.40;;;3.97;;
62030;SDS011;62035;52.094;5.112;2023-04-25T03:19:18;16.90;;;3.50;;
62030;SDS011;62035;52.094;5.112;2023-04-25T03:21:46;17.42;;;3.00;;
62030;SDS011;62035;52.094;5.112;2023-04-25T03:24:15;9.75;;;2.60;;
62030;SDS011;62035;52.094;5.112;2023-04-25T03:26:42;10.75;;;2.60;;
62030;SDS011;62035;52.094;5.112;2023-04-25T03:29:10;4.22;;;2.13;;
62030;SDS011;62035;52.094;5.112;2023-04-25T03:31:38;10.02;;;1.65;;
62030;SDS011;62035;52.094;5.112;2023-04-25T03:34:06;6.93;;;1.85;;
62030;SDS011;62035;52.094;5.112;2023-04-25T03:36:33;4.20;;;1.58;;
62030;SDS011;62035;52.094;5.112;2023-04-25T03:39:01;6.10;;;1.92;;
62030;SDS011;62035;52.094;5.112;2023-04-25T03:41:30;9.30;;;2.85;;
62030;SDS011;62035;52.094;5.112;2023-04-25T03:43:57;7.63;;;1.60;;
62030;SDS011;62035;52.094;5.112;2023-04-25T03:46:25;5.93;;;1.65;;
62030;SDS011;62035;52.094;5.112;2023-04-25T03:48:53;12.07;;;2.10;;
62030;SDS011;62035;52.094;5.112;2023-04-25T03:51:20;6.57;;;1.70;;
62030;SDS011;62035;52.094;5.112;2023-04-25T03:53:48;6.22;;;1.77;;
62030;SDS011;62035;52.094;5.112;2023-04-25T03:56:16;7.90;;;2.17;;
62030;SDS011;62035;52.094;5.112;2023-04-25T03:58:45;9.55;;;2.28;;
62030;SDS011;62035;52.094;5.112;2023-04-25T04:01:12;13.95;;;2.25;;
62030;SDS011;62035;52.094;5.112;2023-04-25T04:03:40;8.32;;;2.30;;
62030;SDS011;62035;52.094;5.112;2023-04-25T04:06:07;8.45;;;2.05;;
62030;SDS011;62035;52.094;5.112;2023-04-25T04:08:36;15.18;;;3.40;;
62030;SDS011;62035;52.094;5.112;2023-04-25T04:11:04;5.32;;;1.73;;
62030;SDS011;62035;52.094;5.112;2023-04-25T04:13:31;6.85;;;1.90;;
62030;SDS011;62035;52.094;5.112;2023-04-25T04:16:00;9.85;;;2.08;;
62030;SDS011;62035;52.094;5.112;2023-04-25T04:18:30;9.30;;;2.05;;
62030;SDS011;62035;52.094;5.112;2023-04-25T04:20:59;11.90;;;2.30;;
62030;SDS011;62035;52.094;5.112;2023-04-25T04:23:26;8.00;;;1.90;;
62030;SDS011;62035;52.094;5.112;2023-04-25T04:25:54;5.63;;;2.00;;
62030;SDS011;62035;52.094;5.112;2023-04-25T04:28:23;6.43;;;2.08;;
62030;SDS011;62035;52.094;5.112;2023-04-25T04:30:51;11.60;;;2.00;;
62030;SDS011;62035;52.094;5.112;2023-04-25T04:33:20;10.63;;;2.08;;
62030;SDS011;62035;52.094;5.112;2023-04-25T04:35:50;5.78;;;2.03;;
62030;SDS011;62035;52.094;5.112;2023-04-25T04:38:19;7.78;;;2.08;;
62030;SDS011;62035;52.094;5.112;2023-04-25T04:40:47;9.98;;;1.88;;
62030;SDS011;62035;52.094;5.112;2023-04-25T04:43:16;8.77;;;1.92;;
62030;SDS011;62035;52.094;5.112;2023-04-25T04:45:44;6.88;;;2.17;;
62030;SDS011;62035;52.094;5.112;2023-04-25T04:48:12;7.05;;;2.10;;
62030;SDS011;62035;52.094;5.112;2023-04-25T04:50:42;11.40;;;2.60;;
62030;SDS011;62035;52.094;5.112;2023-04-25T04:53:11;12.38;;;2.00;;
62030;SDS011;62035;52.094;5.112;2023-04-25T04:55:39;12.93;;;2.10;;
62030;SDS011;62035;52.094;5.112;2023-04-25T04:58:07;3.97;;;1.67;;
62030;SDS011;62035;52.094;5.112;2023-04-25T05:00:35;12.35;;;2.30;;
62030;SDS011;62035;52.094;5.112;2023-04-25T05:03:04;9.38;;;1.77;;
62030;SDS011;62035;52.094;5.112;2023-04-25T05:05:32;3.40;;;1.73;;
62030;SDS011;62035;52.094;5.112;2023-04-25T05:08:01;7.32;;;1.95;;
62030;SDS011;62035;52.094;5.112;2023-04-25T05:10:28;5.00;;;1.67;;
62030;SDS011;62035;52.094;5.112;2023-04-25T05:12:56;6.13;;;1.80;;
62030;SDS011;62035;52.094;5.112;2023-04-25T05:15:23;9.30;;;1.85;;
62030;SDS011;62035;52.094;5.112;2023-04-25T05:17:51;12.75;;;2.42;;
62030;SDS011;62035;52.094;5.112;2023-04-25T05:20:19;15.15;;;2.45;;
62030;SDS011;62035;52.094;5.112;2023-04-25T05:22:46;7.00;;;1.92;;
62030;SDS011;62035;52.094;5.112;2023-04-25T05:25:15;10.07;;;2.28;;
62030;SDS011;62035;52.094;5.112;2023-04-25T05:27:43;9.10;;;1.90;;
62030;SDS011;62035;52.094;5.112;2023-04-25T05:30:11;5.55;;;1.85;;
62030;SDS011;62035;52.094;5.112;2023-04-25T05:32:39;6.60;;;2.20;;
62030;SDS011;62035;52.094;5.112;2023-04-25T05:35:07;5.38;;;1.98;;
62030;SDS011;62035;52.094;5.112;2023-04-25T05:37:35;8.90;;;2.20;;
62030;SDS011;62035;52.094;5.112;2023-04-25T05:40:03;7.70;;;1.95;;
62030;SDS011;62035;52.094;5.112;2023-04-25T05:42:34;7.57;;;1.70;;
62030;SDS011;62035;52.094;5.112;2023-04-25T05:45:02;8.02;;;1.65;;
62030;SDS011;62035;52.094;5.112;2023-04-25T05:47:31;9.00;;;2.40;;
62030;SDS011;62035;52.094;5.112;2023-04-25T05:49:58;8.73;;;1.90;;
62030;SDS011;62035;52.094;5.112;2023-04-25T05:52:26;9.93;;;1.83;;
62030;SDS011;62035;52.094;5.112;2023-04-25T05:54:53;9.30;;;2.08;;
62030;SDS011;62035;52.094;5.112;2023-04-25T05:57:21;9.77;;;1.92;;
62030;SDS011;62035;52.094;5.112;2023-04-25T05:59:52;3.42;;;1.48;;
62030;SDS011;62035;52.094;5.112;2023-04-25T06:02:20;8.82;;;2.67;;
62030;SDS011;62035;52.094;5.112;2023-04-25T06:04:49;9.18;;;1.90;;
62030;SDS011;62035;52.094;5.112;2023-04-25T06:07:17;6.65;;;1.73;;
62030;SDS011;62035;52.094;5.112;2023-04-25T06:09:45;4.30;;;1.50;;
62030;SDS011;62035;52.094;5.112;2023-04-25T06:12:13;13.18;;;2.88;;
62030;SDS011;62035;52.094;5.112;2023-04-25T06:14:41;7.35;;;1.70;;
62030;SDS011;62035;52.094;5.112;2023-04-25T06:17:10;8.68;;;1.77;;
62030;SDS011;62035;52.094;5.112;2023-04-25T06:19:37;5.97;;;1.75;;
62030;SDS011;62035;52.094;5.112;2023-04-25T06:22:05;7.07;;;1.85;;
62030;SDS011;62035;52.094;5.112;2023-04-25T06:24:33;10.73;;;2.30;;
62030;SDS011;62035;52.094;5.112;2023-04-25T06:27:02;7.63;;;1.83;;
62030;SDS011;62035;52.094;5.112;2023-04-25T06:29:30;11.88;;;2.05;;
62030;SDS011;62035;52.094;5.112;2023-04-25T06:31:57;13.35;;;2.20;;
62030;SDS011;62035;52.094;5.112;2023-04-25T06:34:26;7.03;;;1.95;;
62030;SDS011;62035;52.094;5.112;2023-04-25T06:36:54;13.38;;;2.83;;
62030;SDS011;62035;52.094;5.112;2023-04-25T06:39:21;13.85;;;2.20;;
62030;SDS011;62035;52.094;5.112;2023-04-25T06:41:51;9.15;;;2.40;;
62030;SDS011;62035;52.094;5.112;2023-04-25T06:44:19;13.13;;;2.30;;
62030;SDS011;62035;52.094;5.112;2023-04-25T06:46:48;10.90;;;2.30;;
62030;SDS011;62035;52.094;5.112;2023-04-25T06:49:16;9.95;;;2.20;;
62030;SDS011;62035;52.094;5.112;2023-04-25T06:51:45;11.38;;;2.20;;
62030;SDS011;62035;52.094;5.112;2023-04-25T06:54:13;11.40;;;2.13;;
62030;SDS011;62035;52.094;5.112;2023-04-25T06:56:40;18.67;;;2.60;;
62030;SDS011;62035;52.094;5.112;2023-04-25T06:59:08;13.68;;;2.22;;
62030;SDS011;62035;52.094;5.112;2023-04-25T07:01:35;11.50;;;2.28;;
62030;SDS011;62035;52.094;5.112;2023-04-25T07:04:03;8.57;;;2.20;;
62030;SDS011;62035;52.094;5.112;2023-04-25T07:06:31;8.40;;;2.45;;
62030;SDS011;62035;52.094;5.112;2023-04-25T07:09:00;7.97;;;2.05;;
62030;SDS011;62035;52.094;5.112;2023-04-25T07:11:28;11.15;;;2.25;;
62030;SDS011;62035;52.094;5.112;2023-04-25T07:13:55;11.82;;;2.30;;
62030;SDS011;62035;52.094;5.112;2023-04-25T07:16:23;9.80;;;2.00;;
62030;SDS011;62035;52.094;5.112;2023-04-25T07:18:51;16.33;;;2.75;;
62030;SDS011;62035;52.094;5.112;2023-04-25T07:21:18;10.23;;;2.28;;
62030;SDS011;62035;52.094;5.112;2023-04-25T07:23:46;10.52;;;2.67;;
62030;SDS011;62035;52.094;5.112;2023-04-25T07:26:15;10.07;;;2.50;;
62030;SDS011;62035;52.094;5.112;2023-04-25T07:28:42;15.70;;;2.33;;
62030;SDS011;62035;52.094;5.112;2023-04-25T07:31:10;10.57;;;1.88;;
62030;SDS011;62035;52.094;5.112;2023-04-25T07:33:37;6.63;;;1.88;;
62030;SDS011;62035;52.094;5.112;2023-04-25T07:36:05;9.75;;;1.55;;
62030;SDS011;62035;52.094;5.112;2023-04-25T07:38:34;9.20;;;1.73;;
62030;SDS011;62035;52.094;5.112;2023-04-25T07:41:02;7.80;;;1.23;;
62030;SDS011;62035;52.094;5.112;2023-04-25T07:43:30;5.00;;;1.40;;
62030;SDS011;62035;52.094;5.112;2023-04-25T07:45:58;3.90;;;1.15;;
62030;SDS011;62035;52.094;5.112;2023-04-25T07:48:26;5.10;;;1.42;;
62030;SDS011;62035;52.094;5.112;2023-04-25T07:50:53;3.33;;;1.30;;
62030;SDS011;62035;52.094;5.112;2023-04-25T07:53:21;3.72;;;1.10;;
62030;SDS011;62035;52.094;5.112;2023-04-25T07:55:48;6.57;;;1.17;;
62030;SDS011;62035;52.094;5.112;2023-04-25T07:58:17;3.83;;;1.15;;
62030;SDS011;62035;52.094;5.112;2023-04-25T08:00:48;6.03;;;1.20;;
62030;SDS011;62035;52.094;5.112;2023-04-25T08:03:16;9.05;;;2.00;;
62030;SDS011;62035;52.094;5.112;2023-04-25T08:05:43;8.20;;;1.60;;
62030;SDS011;62035;52.094;5.112;2023-04-25T08:08:11;9.30;;;1.45;;
62030;SDS011;62035;52.094;5.112;2023-04-25T08:10:39;6.78;;;1.50;;
62030;SDS011;62035;52.094;5.112;2023-04-25T08:13:06;12.60;;;1.92;;
62030;SDS011;62035;52.094;5.112;2023-04-25T08:15:34;11.75;;;1.40;;
62030;SDS011;62035;52.094;5.112;2023-04-25T08:18:03;10.48;;;2.13;;
62030;SDS011;62035;52.094;5.112;2023-04-25T08:20:31;5.18;;;1.38;;
62030;SDS011;62035;52.094;5.112;2023-04-25T08:22:58;4.32;;;1.33;;
62030;SDS011;62035;52.094;5.112;2023-04-25T08:25:26;4.63;;;1.30;;
62030;SDS011;62035;52.094;5.112;2023-04-25T08:27:53;6.72;;;1.50;;
62030;SDS011;62035;52.094;5.112;2023-04-25T08:30:21;7.07;;;1.48;;
62030;SDS011;62035;52.094;5.112;2023-04-25T08:32:49;8.45;;;2.03;;
62030;SDS011;62035;52.094;5.112;2023-04-25T08:35:18;7.88;;;1.80;;
62030;SDS011;62035;52.094;5.112;2023-04-25T08:37:46;6.93;;;1.65;;
62030;SDS011;62035;52.094;5.112;2023-04-25T08:40:15;7.60;;;1.60;;
62030;SDS011;62035;52.094;5.112;2023-04-25T08:42:42;8.85;;;1.80;;
62030;SDS011;62035;52.094;5.112;2023-04-25T08:45:11;8.23;;;1.75;;
62030;SDS011;62035;52.094;5.112;2023-04-25T08:47:38;9.50;;;1.88;;
62030;SDS011;62035;52.094;5.112;2023-04-25T08:50:07;8.45;;;1.50;;
62030;SDS011;62035;52.094;5.112;2023-04-25T08:52:37;10.65;;;1.63;;
62030;SDS011;62035;52.094;5.112;2023-04-25T08:55:10;7.07;;;1.55;;
62030;SDS011;62035;52.094;5.112;2023-04-25T08:57:40;6.68;;;1.52;;
62030;SDS011;62035;52.094;5.112;2023-04-25T09:00:10;11.75;;;1.98;;
62030;SDS011;62035;52.094;5.112;2023-04-25T09:02:39;9.90;;;1.70;;
62030;SDS011;62035;52.094;5.112;2023-04-25T09:05:09;5.90;;;1.40;;
62030;SDS011;62035;52.094;5.112;2023-04-25T09:07:42;6.55;;;1.70;;
62030;SDS011;62035;52.094;5.112;2023-04-25T09:10:09;4.80;;;1.20;;
62030;SDS011;62035;52.094;5.112;2023-04-25T09:12:37;4.85;;;1.20;;
62030;SDS011;62035;52.094;5.112;2023-04-25T09:15:05;5.32;;;1.20;;
62030;SDS011;62035;52.094;5.112;2023-04-25T09:17:35;3.80;;;1.00;;
62030;SDS011;62035;52.094;5.112;2023-04-25T09:20:06;5.97;;;1.30;;
62030;SDS011;62035;52.094;5.112;2023-04-25T09:22:36;6.50;;;1.33;;
62030;SDS011;62035;52.094;5.112;2023-04-25T09:25:09;4.05;;;1.20;;
62030;SDS011;62035;52.094;5.112;2023-04-25T09:27:48;8.27;;;1.50;;
62030;SDS011;62035;52.094;5.112;2023-04-25T09:30:17;4.22;;;1.42;;
62030;SDS011;62035;52.094;5.112;2023-04-25T09:32:45;8.27;;;1.50;;
62030;SDS011;62035;52.094;5.112;2023-04-25T09:35:23;4.35;;;1.33;;
62030;SDS011;62035;52.094;5.112;2023-04-25T09:37:52;8.32;;;1.40;;
62030;SDS011;62035;52.094;5.112;2023-04-25T09:40:21;5.38;;;1.52;;
62030;SDS011;62035;52.094;5.112;2023-04-25T09:42:48;7.82;;;1.20;;
62030;SDS011;62035;52.094;5.112;2023-04-25T09:45:16;8.05;;;1.25;;
62030;SDS011;62035;52.094;5.112;2023-04-25T09:47:44;6.35;;;1.42;;
62030;SDS011;62035;52.094;5.112;2023-04-25T09:50:15;9.15;;;1.67;;
62030;SDS011;62035;52.094;5.112;2023-04-25T09:52:45;5.32;;;1.10;;
62030;SDS011;62035;52.094;5.112;2023-04-25T09:55:12;5.47;;;1.17;;
62030;SDS011;62035;52.094;5.112;2023-04-25T09:57:41;4.60;;;1.50;;
62030;SDS011;62035;52.094;5.112;2023-04-25T10:00:13;6.47;;;1.33;;
62030;SDS011;62035;52.094;5.112;2023-04-25T10:02:43;4.85;;;1.40;;
62030;SDS011;62035;52.094;5.112;2023-04-25T10:05:14;3.33;;;1.05;;
62030;SDS011;62035;52.094;5.112;2023-04-25T10:07:42;4.15;;;1.27;;
62030;SDS011;62035;52.094;5.112;2023-04-25T10:10:12;4.03;;;1.20;;
62030;SDS011;62035;52.094;5.112;2023-04-25T10:12:41;6.88;;;1.20;;
62030;SDS011;62035;52.094;5.112;2023-04-25T10:15:11;6.65;;;1.10;;
62030;SDS011;62035;52.094;5.112;2023-04-25T10:17:41;9.75;;;1.27;;
62030;SDS011;62035;52.094;5.112;2023-04-25T10:20:10;8.70;;;1.92;;
62030;SDS011;62035;52.094;5.112;2023-04-25T10:22:39;2.67;;;1.02;;
62030;SDS011;62035;52.094;5.112;2023-04-25T10:25:11;3.65;;;1.20;;
62030;SDS011;62035;52.094;5.112;2023-04-25T10:27:42;6.07;;;1.10;;
62030;SDS011;62035;52.094;5.112;2023-04-25T10:30:13;3.75;;;1.33;;
62030;SDS011;62035;52.094;5.112;2023-04-25T10:32:43;4.33;;;1.23;;
62030;SDS011;62035;52.094;5.112;2023-04-25T10:35:13;7.10;;;1.27;;
62030;SDS011;62035;52.094;5.112;2023-04-25T10:37:56;11.02;;;1.67;;
62030;SDS011;62035;52.094;5.112;2023-04-25T10:40:25;9.88;;;1.42;;
62030;SDS011;62035;52.094;5.112;2023-04-25T10:42:54;4.32;;;1.35;;
62030;SDS011;62035;52.094;5.112;2023-04-25T10:45:22;5.20;;;1.70;;
62030;SDS011;62035;52.094;5.112;2023-04-25T10:47:50;5.78;;;1.70;;
62030;SDS011;62035;52.094;5.112;2023-04-25T10:50:17;8.27;;;1.85;;
62030;SDS011;62035;52.094;5.112;2023-04-25T10:52:45;4.30;;;1.50;;
62030;SDS011;62035;52.094;5.112;2023-04-25T10:55:12;5.07;;;1.65;;
62030;SDS011;62035;52.094;5.112;2023-04-25T10:57:41;5.05;;;1.52;;
62030;SDS011;62035;52.094;5.112;2023-04-25T11:00:14;8.90;;;1.53;;
62030;SDS011;62035;52.094;5.112;2023-04-25T11:02:45;13.95;;;2.10;;
62030;SDS011;62035;52.094;5.112;2023-04-25T11:05:32;4.28;;;1.25;;
62030;SDS011;62035;52.094;5.112;2023-04-25T11:08:03;5.93;;;1.13;;
62030;SDS011;62035;52.094;5.112;2023-04-25T11:10:39;5.75;;;1.50;;
62030;SDS011;62035;52.094;5.112;2023-04-25T11:13:08;6.07;;;1.27;;
62030;SDS011;62035;52.094;5.112;2023-04-25T11:15:36;6.32;;;1.60;;
62030;SDS011;62035;52.094;5.112;2023-04-25T11:18:04;9.68;;;1.90;;
62030;SDS011;62035;52.094;5.112;2023-04-25T11:20:32;4.30;;;1.58;;
62030;SDS011;62035;52.094;5.112;2023-04-25T11:22:59;8.30;;;1.70;;
62030;SDS011;62035;52.094;5.112;2023-04-25T11:25:27;6.47;;;1.90;;
62030;SDS011;62035;52.094;5.112;2023-04-25T11:27:56;6.28;;;1.27;;
62030;SDS011;62035;52.094;5.112;2023-04-25T11:30:28;12.30;;;1.80;;
62030;SDS011;62035;52.094;5.112;2023-04-25T11:32:57;8.90;;;1.30;;
62030;SDS011;62035;52.094;5.112;2023-04-25T11:35:25;6.35;;;1.60;;
62030;SDS011;62035;52.094;5.112;2023-04-25T11:37:52;6.03;;;1.40;;
62030;SDS011;62035;52.094;5.112;2023-04-25T11:40:20;3.85;;;1.48;;
62030;SDS011;62035;52.094;5.112;2023-04-25T11:42:48;6.45;;;1.40;;
62030;SDS011;62035;52.094;5.112;2023-04-25T11:45:15;6.38;;;1.55;;
62030;SDS011;62035;52.094;5.112;2023-04-25T11:47:44;7.07;;;1.35;;
62030;SDS011;62035;52.094;5.112;2023-04-25T11:50:13;6.28;;;1.48;;
62030;SDS011;62035;52.094;5.112;2023-04-25T11:52:42;9.25;;;2.05;;
62030;SDS011;62035;52.094;5.112;2023-04-25T11:55:12;7.70;;;1.40;;
62030;SDS011;62035;52.094;5.112;2023-04-25T11:57:42;5.57;;;1.70;;
62030;SDS011;62035;52.094;5.112;2023-04-25T12:00:13;3.33;;;1.35;;
62030;SDS011;62035;52.094;5.112;2023-04-25T12:02:44;4.40;;;1.20;;
62030;SDS011;62035;52.094;5.112;2023-04-25T12:05:15;5.43;;;1.60;;
62030;SDS011;62035;52.094;5.112;2023-04-25T12:07:43;3.90;;;1.40;;
62030;SDS011;62035;52.094;5.112;2023-04-25T12:10:11;4.30;;;1.20;;
62030;SDS011;62035;52.094;5.112;2023-04-25T12:12:43;7.68;;;1.50;;
62030;SDS011;62035;52.094;5.112;2023-04-25T12:15:13;7.97;;;1.40;;
62030;SDS011;62035;52.094;5.112;2023-04-25T12:20:13;5.68;;;1.75;;
62030;SDS011;62035;52.094;5.112;2023-04-25T12:22:46;7.78;;;1.67;;
62030;SDS011;62035;52.094;5.112;2023-04-25T12:28:16;3.47;;;1.10;;
62030;SDS011;62035;52.094;5.112;2023-04-25T12:30:52;4.75;;;1.38;;
62030;SDS011;62035;52.094;5.112;2023-04-25T12:33:22;5.70;;;1.30;;
62030;SDS011;62035;52.094;5.112;2023-04-25T12:35:51;5.68;;;2.15;;
62030;SDS011;62035;52.094;5.112;2023-04-25T12:38:23;8.35;;;1.50;;
62030;SDS011;62035;52.094;5.112;2023-04-25T12:40:52;6.90;;;1.40;;
62030;SDS011;62035;52.094;5.112;2023-04-25T12:43:20;8.90;;;1.90;;
62030;SDS011;62035;52.094;5.112;2023-04-25T12:45:48;6.90;;;1.55;;
62030;SDS011;62035;52.094;5.112;2023-04-25T12:48:16;2.85;;;1.73;;
62030;SDS011;62035;52.094;5.112;2023-04-25T12:50:44;5.78;;;1.60;;
62030;SDS011;62035;52.094;5.112;2023-04-25T12:53:16;8.00;;;1.80;;
62030;SDS011;62035;52.094;5.112;2023-04-25T12:55:43;9.30;;;1.70;;
62030;SDS011;62035;52.094;5.112;2023-04-25T12:58:12;13.63;;;1.92;;
62030;SDS011;62035;52.094;5.112;2023-04-25T13:00:40;5.20;;;1.42;;
62030;SDS011;62035;52.094;5.112;2023-04-25T13:03:08;7.63;;;1.38;;
62030;SDS011;62035;52.094;5.112;2023-04-25T13:05:36;4.45;;;1.40;;
62030;SDS011;62035;52.094;5.112;2023-04-25T13:08:04;9.07;;;1.63;;
62030;SDS011;62035;52.094;5.112;2023-04-25T13:10:33;8.02;;;1.67;;
62030;SDS011;62035;52.094;5.112;2023-04-25T13:13:01;6.90;;;1.98;;
62030;SDS011;62035;52.094;5.112;2023-04-25T13:15:29;6.35;;;1.70;;
62030;SDS011;62035;52.094;5.112;2023-04-25T13:17:57;6.60;;;1.50;;
62030;SDS011;62035;52.094;5.112;2023-04-25T13:20:24;3.38;;;1.20;;
62030;SDS011;62035;52.094;5.112;2023-04-25T13:22:52;3.60;;;1.08;;
62030;SDS011;62035;52.094;5.112;2023-04-25T13:25:19;6.40;;;1.30;;
62030;SDS011;62035;52.094;5.112;2023-04-25T13:27:48;9.25;;;2.13;;
62030;SDS011;62035;52.094;5.112;2023-04-25T13:30:16;6.35;;;1.63;;
62030;SDS011;62035;52.094;5.112;2023-04-25T13:32:44;6.65;;;1.73;;
62030;SDS011;62035;52.094;5.112;2023-04-25T13:35:12;6.32;;;1.23;;
62030;SDS011;62035;52.094;5.112;2023-04-25T13:37:41;13.10;;;2.03;;
62030;SDS011;62035;52.094;5.112;2023-04-25T13:40:09;8.73;;;1.60;;
62030;SDS011;62035;52.094;5.112;2023-04-25T13:42:38;5.93;;;1.50;;
62030;SDS011;62035;52.094;5.112;2023-04-25T13:45:08;7.15;;;1.58;;
62030;SDS011;62035;52.094;5.112;2023-04-25T13:47:36;3.97;;;1.50;;
62030;SDS011;62035;52.094;5.112;2023-04-25T13:50:04;7.78;;;1.83;;
62030;SDS011;62035;52.094;5.112;2023-04-25T13:52:33;5.60;;;1.42;;
62030;SDS011;62035;52.094;5.112;2023-04-25T13:55:01;8.50;;;1.40;;
62030;SDS011;62035;52.094;5.112;2023-04-25T13:57:32;12.63;;;1.50;;
62030;SDS011;62035;52.094;5.112;2023-04-25T14:00:00;5.03;;;1.80;;
62030;SDS011;62035;52.094;5.112;2023-04-25T14:02:34;5.82;;;1.52;;
62030;SDS011;62035;52.094;5.112;2023-04-25T14:05:02;10.18;;;1.73;;
62030;SDS011;62035;52.094;5.112;2023-04-25T14:07:31;8.48;;;1.55;;
62030;SDS011;62035;52.094;5.112;2023-04-25T14:10:00;8.48;;;1.50;;
62030;SDS011;62035;52.094;5.112;2023-04-25T14:12:30;6.93;;;1.40;;
62030;SDS011;62035;52.094;5.112;2023-04-25T14:14:57;7.30;;;1.70;;
62030;SDS011;62035;52.094;5.112;2023-04-25T14:17:25;7.50;;;1.77;;
62030;SDS011;62035;52.094;5.112;2023-04-25T14:19:55;4.45;;;1.60;;
62030;SDS011;62035;52.094;5.112;2023-04-25T14:22:22;9.10;;;1.70;;
62030;SDS011;62035;52.094;5.112;2023-04-25T14:24:50;9.35;;;2.10;;
62030;SDS011;62035;52.094;5.112;2023-04-25T14:27:18;7.72;;;1.80;;
62030;SDS011;62035;52.094;5.112;2023-04-25T14:29:46;13.30;;;1.83;;
62030;SDS011;62035;52.094;5.112;2023-04-25T14:32:13;6.60;;;1.90;;
62030;SDS011;62035;52.094;5.112;2023-04-25T14:34:41;6.38;;;1.40;;
62030;SDS011;62035;52.094;5.112;2023-04-25T14:37:10;5.20;;;1.40;;
62030;SDS011;62035;52.094;5.112;2023-04-25T14:39:37;6.05;;;1.45;;
62030;SDS011;62035;52.094;5.112;2023-04-25T14:42:05;3.38;;;1.30;;
62030;SDS011;62035;52.094;5.112;2023-04-25T14:44:32;9.32;;;1.40;;
62030;SDS011;62035;52.094;5.112;2023-04-25T14:47:00;6.60;;;1.90;;
62030;SDS011;62035;52.094;5.112;2023-04-25T14:49:27;5.55;;;1.42;;
62030;SDS011;62035;52.094;5.112;2023-04-25T14:51:55;4.18;;;1.40;;
62030;SDS011;62035;52.094;5.112;2023-04-25T14:54:24;10.13;;;1.90;;
62030;SDS011;62035;52.094;5.112;2023-04-25T14:56:51;10.30;;;1.58;;